Time;durP1;ratioP1;P1;durP2;ratioP2;P2;SDS_P1;SDS_P2;PMS_P1;PMS_P2;Temp;Humidity;BMP_temperature;BMP_pressure;BME280_temperature;BME280_humidity;BME280_pressure;Samples;Min_cycle;Max_cycle;Signal;HPM_P1;HPM_P2
2021/01/08 00:04:13;;;;;;;1.42;1.02;;;22.80;21.30;25.80;93438.00;;;;10422429;28;75245;-73
2021/01/08 00:09:14;;;;;;;1.58;1.10;;;22.80;21.30;25.80;93433.00;;;;10422255;28;75472;-73
2021/01/08 00:14:14;;;;;;;1.13;1.02;;;22.80;21.20;25.80;93438.00;;;;10439010;28;70506;-73
2021/01/08 00:19:15;;;;;;;1.13;1.02;;;22.80;21.30;25.80;93437.00;;;;10439186;28;74496;-74
2021/01/08 00:24:16;;;;;;;1.02;0.90;;;22.80;21.20;25.80;93425.00;;;;10439559;28;48010;-73
2021/01/08 00:29:17;;;;;;;1.02;0.90;;;22.80;21.20;25.80;93424.00;;;;10420817;28;47186;-74
2021/01/08 00:34:18;;;;;;;1.20;1.00;;;22.80;21.20;25.80;93430.00;;;;10422021;28;47193;-74
2021/01/08 00:39:20;;;;;;;1.10;0.90;;;22.70;21.20;25.80;93424.00;;;;10422336;28;47315;-73
2021/01/08 00:44:21;;;;;;;1.10;1.00;;;22.70;21.20;25.80;93420.00;;;;10422427;28;47243;-73
2021/01/08 00:49:22;;;;;;;1.00;0.82;;;22.70;21.20;25.80;93440.00;;;;10438061;28;64231;-73
2021/01/08 00:54:22;;;;;;;1.00;0.90;;;22.70;21.10;25.80;93433.00;;;;10439605;28;51601;-73
2021/01/08 00:59:23;;;;;;;1.50;1.10;;;22.80;21.10;25.80;93424.00;;;;10436752;28;74481;-74
2021/01/08 01:04:24;;;;;;;1.23;1.00;;;22.80;21.10;25.80;93425.00;;;;10421127;28;47018;-73
2021/01/08 01:09:24;;;;;;;1.55;1.10;;;22.80;21.20;25.80;93441.00;;;;10420254;28;74958;-73
2021/01/08 01:14:25;;;;;;;1.05;0.88;;;22.70;21.10;25.80;93430.00;;;;10420133;28;75560;-73
2021/01/08 01:19:26;;;;;;;0.90;0.80;;;22.70;21.20;25.80;93450.00;;;;10420219;28;75431;-74
2021/01/08 01:24:27;;;;;;;1.17;1.05;;;22.70;21.10;25.80;93455.00;;;;10420083;28;74935;-75
2021/01/08 01:29:28;;;;;;;1.40;1.02;;;22.80;21.10;25.70;93447.00;;;;10419853;28;68563;-74
2021/01/08 01:34:28;;;;;;;0.75;0.75;;;22.80;21.10;25.70;93461.00;;;;10435633;28;45395;-73
2021/01/08 01:39:29;;;;;;;1.00;0.88;;;22.70;21.10;25.70;93462.00;;;;10435479;28;46097;-74
2021/01/08 01:44:30;;;;;;;1.05;0.85;;;22.70;21.10;25.70;93467.00;;;;10417894;28;74165;-73
2021/01/08 01:49:31;;;;;;;0.80;0.68;;;22.70;21.10;25.80;93465.00;;;;10416808;28;74354;-73
2021/01/08 01:54:31;;;;;;;1.00;0.85;;;22.70;21.10;25.70;93471.00;;;;10435092;28;46223;-73
2021/01/08 01:59:32;;;;;;;1.05;0.90;;;22.70;21.00;25.70;93456.00;;;;10434376;28;75140;-73
2021/01/08 02:04:33;;;;;;;0.80;0.60;;;22.70;20.90;25.70;93458.00;;;;10417605;28;75106;-74
2021/01/08 02:09:34;;;;;;;0.75;0.70;;;22.70;21.00;25.70;93459.00;;;;10417597;28;74108;-73
2021/01/08 02:14:35;;;;;;;0.70;0.70;;;22.70;21.10;25.70;93466.00;;;;10433978;28;75619;-73
2021/01/08 02:20:01;;;;;;;0.73;0.70;;;22.70;21.10;25.80;93455.00;;;;10434217;28;75497;-73
2021/01/08 02:25:18;;;;;;;0.68;0.68;;;22.70;21.00;25.80;93471.00;;;;10435220;28;46264;-73
2021/01/08 02:30:19;;;;;;;0.70;0.70;;;22.70;21.00;25.70;93461.00;;;;10436363;28;45456;-73
2021/01/08 02:35:21;;;;;;;1.00;0.70;;;22.70;20.90;25.70;93462.00;;;;10415382;28;76191;-73
2021/01/08 02:40:23;;;;;;;0.75;0.70;;;22.70;21.00;25.70;93479.00;;;;10416028;28;47249;-74
2021/01/08 02:45:23;;;;;;;0.68;0.60;;;22.70;21.00;25.70;93477.00;;;;10416032;28;60177;-73
2021/01/08 02:50:25;;;;;;;0.60;0.60;;;22.60;20.90;25.70;93472.00;;;;10415457;28;75147;-73
2021/01/08 02:55:35;;;;;;;0.65;0.65;;;22.60;20.90;25.70;93462.00;;;;10415192;28;54783;-74
2021/01/08 03:00:36;;;;;;;0.60;0.50;;;22.70;20.90;25.70;93476.00;;;;10416871;28;48209;-73
2021/01/08 03:05:37;;;;;;;0.60;0.55;;;22.70;20.90;25.70;93475.00;;;;10433759;28;75255;-73
2021/01/08 03:10:37;;;;;;;0.57;0.52;;;22.70;20.90;25.70;93467.00;;;;10416497;28;57702;-73
2021/01/08 03:15:38;;;;;;;0.60;0.57;;;22.70;20.90;25.70;93452.00;;;;10416263;28;75808;-73
2021/01/08 03:20:39;;;;;;;0.73;0.60;;;22.60;20.90;25.70;93455.00;;;;10409883;28;74189;-73
2021/01/08 03:25:39;;;;;;;0.40;0.40;;;22.60;20.80;25.70;93456.00;;;;10379612;28;74479;-74
2021/01/08 03:30:40;;;;;;;0.63;0.60;;;22.60;20.80;25.70;93460.00;;;;10380031;28;74580;-73
2021/01/08 03:35:41;;;;;;;0.45;0.45;;;22.60;20.80;25.70;93455.00;;;;10397120;28;75610;-74
2021/01/08 03:40:41;;;;;;;0.68;0.45;;;22.60;20.80;25.70;93439.00;;;;10393017;28;61104;-74
2021/01/08 03:45:42;;;;;;;0.40;0.40;;;22.60;20.90;25.70;93444.00;;;;10431514;28;45419;-74
2021/01/08 03:50:43;;;;;;;0.75;0.50;;;22.60;20.80;25.70;93438.00;;;;10436616;28;75408;-74
2021/01/08 03:55:43;;;;;;;0.40;0.40;;;22.60;20.80;25.70;93441.00;;;;10438222;28;59452;-73
2021/01/08 04:00:44;;;;;;;0.50;0.50;;;22.60;20.80;25.70;93447.00;;;;10437926;28;74263;-73
2021/01/08 04:05:45;;;;;;;0.63;0.40;;;22.70;20.80;25.70;93448.00;;;;10440585;28;47842;-73
2021/01/08 04:10:45;;;;;;;0.40;0.40;;;22.60;20.80;25.60;93443.00;;;;10439829;28;67989;-73
2021/01/08 04:15:46;;;;;;;0.43;0.43;;;22.60;20.80;25.60;93458.00;;;;10438811;28;48603;-74
2021/01/08 04:20:47;;;;;;;0.57;0.57;;;22.60;20.90;25.60;93461.00;;;;10436718;28;75048;-73
2021/01/08 04:25:48;;;;;;;0.50;0.50;;;22.60;20.80;25.60;93454.00;;;;10436609;28;56489;-74
2021/01/08 04:30:49;;;;;;;0.65;0.52;;;22.60;20.80;25.60;93452.00;;;;10425273;28;53727;-73
2021/01/08 04:35:53;;;;;;;0.82;0.60;;;22.60;20.80;25.60;93458.00;;;;10395069;28;51648;-74
2021/01/08 04:40:53;;;;;;;0.60;0.50;;;22.70;20.80;25.60;93466.00;;;;10380038;28;47196;-73
2021/01/08 04:46:03;;;;;;;0.60;0.43;;;22.60;20.70;25.70;93447.00;;;;10394635;28;75734;-74
2021/01/08 04:51:05;;;;;;;0.40;0.40;;;22.70;20.70;25.70;93456.00;;;;10395254;28;47253;-73
2021/01/08 04:56:12;;;;;;;0.95;0.50;;;22.70;20.70;25.70;93457.00;;;;10394938;28;45332;-74
2021/01/08 05:01:14;;;;;;;0.68;0.60;;;22.70;20.70;25.70;93448.00;;;;10394942;28;47027;-74
2021/01/08 05:06:15;;;;;;;0.60;0.50;;;22.70;20.70;25.70;93457.00;;;;10411284;28;55864;-72
2021/01/08 05:11:23;;;;;;;0.50;0.50;;;22.70;20.60;25.80;93453.00;;;;10394729;28;56007;-73
2021/01/08 05:16:27;;;;;;;0.65;0.60;;;22.70;20.60;25.70;93461.00;;;;10397293;28;47288;-73
2021/01/08 05:21:29;;;;;;;0.50;0.50;;;22.70;20.60;25.70;93460.00;;;;10411174;28;48048;-73
2021/01/08 05:26:30;;;;;;;0.50;0.50;;;22.70;20.60;25.70;93476.00;;;;10378322;28;47199;-72
2021/01/08 05:31:33;;;;;;;0.55;0.55;;;22.70;20.60;25.80;93466.00;;;;10377800;28;47406;-72
2021/01/08 05:36:36;;;;;;;0.60;0.60;;;22.70;20.60;25.70;93457.00;;;;10394621;28;46580;-73
2021/01/08 05:41:37;;;;;;;0.73;0.60;;;22.70;20.60;25.70;93469.00;;;;10393809;28;47312;-73
2021/01/08 05:46:38;;;;;;;0.80;0.73;;;22.70;20.60;25.70;93449.00;;;;10376758;28;75343;-73
2021/01/08 05:51:39;;;;;;;0.70;0.60;;;22.80;20.60;25.70;93455.00;;;;10392498;28;75119;-73
2021/01/08 05:56:40;;;;;;;0.60;0.50;;;22.80;20.60;25.80;93462.00;;;;10394585;28;45383;-74
2021/01/08 06:01:41;;;;;;;0.73;0.65;;;22.70;20.50;25.70;93453.00;;;;10393750;28;45362;-74
2021/01/08 06:06:44;;;;;;;1.35;1.25;;;22.80;21.10;25.80;93464.00;;;;10377263;28;47743;-73
2021/01/08 06:11:45;;;;;;;1.60;1.42;;;22.70;20.50;25.80;93470.00;;;;10392463;28;46580;-73
2021/01/08 06:16:47;;;;;;;1.50;1.40;;;22.80;20.50;25.80;93478.00;;;;10394238;28;45356;-73
2021/01/08 06:21:48;;;;;;;1.30;1.20;;;22.80;20.40;25.80;93466.00;;;;10394255;28;47023;-73
2021/01/08 06:26:50;;;;;;;1.08;1.00;;;22.80;20.40;25.80;93482.00;;;;10393271;28;75387;-73
2021/01/08 06:31:52;;;;;;;1.48;1.30;;;22.70;20.40;25.80;93479.00;;;;10377244;28;47052;-72
2021/01/08 06:37:11;;;;;;;1.50;1.10;;;22.70;20.30;25.90;93480.00;;;;10393716;28;45461;-73
2021/01/08 06:42:29;;;;;;;1.25;1.15;;;22.80;20.40;25.90;93468.00;;;;10375432;28;46999;-74
2021/01/08 06:47:35;;;;;;;1.13;0.98;;;22.70;20.30;25.80;93472.00;;;;10391503;28;47054;-73
2021/01/08 06:52:46;;;;;;;1.27;1.00;;;22.70;20.30;25.80;93476.00;;;;10390751;28;45429;-73
2021/01/08 06:57:54;;;;;;;1.23;0.77;;;22.80;20.30;25.80;93485.00;;;;10374169;28;47460;-73
2021/01/08 07:03:07;;;;;;;1.05;0.95;;;22.80;20.30;25.80;93490.00;;;;10391313;28;45338;-73
2021/01/08 07:08:08;;;;;;;0.95;0.85;;;22.80;21.00;25.80;93504.00;;;;10391096;28;46132;-74
2021/01/08 07:13:09;;;;;;;0.90;0.90;;;22.80;20.30;25.80;93488.00;;;;10390041;28;49428;-74
2021/01/08 07:18:13;;;;;;;1.10;0.90;;;22.80;20.30;25.80;93509.00;;;;10373149;28;73982;-74
2021/01/08 07:23:15;;;;;;;0.80;0.80;;;22.70;20.90;25.80;93502.00;;;;10406961;28;70832;-74
2021/01/08 07:28:18;;;;;;;0.93;0.80;;;22.70;20.30;25.80;93497.00;;;;10389436;28;74725;-74
2021/01/08 07:33:24;;;;;;;0.80;0.80;;;22.70;20.30;25.80;93508.00;;;;10388988;28;75324;-74
2021/01/08 07:38:34;;;;;;;2.00;0.90;;;22.70;20.30;25.80;93517.00;;;;10372981;28;73945;-74
2021/01/08 07:43:36;;;;;;;1.00;0.90;;;22.80;20.30;25.80;93522.00;;;;10406239;28;47078;-74
2021/01/08 07:48:40;;;;;;;0.73;0.73;;;22.70;20.20;25.80;93529.00;;;;10390847;28;47533;-73
2021/01/08 07:53:44;;;;;;;1.00;0.90;;;22.80;20.30;25.80;93522.00;;;;10460792;22;48025;-70
2021/01/08 07:58:47;;;;;;;0.70;0.70;;;22.70;20.30;25.80;93528.00;;;;10489072;28;48165;-70
2021/01/08 08:04:09;;;;;;;0.60;0.60;;;22.80;20.30;25.90;93558.00;;;;10471644;28;47690;-70
2021/01/08 08:09:14;;;;;;;0.93;0.80;;;22.80;20.20;25.80;93560.00;;;;10473619;28;46393;-71
2021/01/08 08:14:20;;;;;;;1.27;0.80;;;22.80;20.30;25.80;93561.00;;;;10480955;28;45568;-71
2021/01/08 08:19:20;;;;;;;1.07;0.80;;;22.80;21.40;25.90;93567.00;;;;10479546;28;47112;-69
2021/01/08 08:24:22;;;;;;;0.93;0.70;;;22.80;21.30;25.90;93583.00;;;;10477213;28;75678;-69
2021/01/08 08:29:23;;;;;;;1.20;0.90;;;22.80;21.80;25.90;93585.00;;;;10477361;28;74272;-69
2021/01/08 08:34:32;;;;;;;1.25;0.90;;;22.90;21.10;26.00;93590.00;;;;10478363;28;45396;-69
2021/01/08 08:39:32;;;;;;;1.00;0.77;;;22.90;21.00;26.00;93589.00;;;;10478079;28;47501;-69
2021/01/08 08:44:42;;;;;;;1.25;1.00;;;22.90;20.90;26.00;93601.00;;;;10477489;28;59006;-70
2021/01/08 08:49:44;;;;;;;1.00;0.90;;;23.00;20.80;25.90;93591.00;;;;10478171;28;47432;-69
2021/01/08 08:54:45;;;;;;;1.10;0.88;;;23.00;20.80;25.90;93584.00;;;;10477577;28;45410;-69
2021/01/08 08:59:46;;;;;;;0.93;0.90;;;23.00;20.70;26.00;93584.00;;;;10477419;28;46114;-69
2021/01/08 09:04:57;;;;;;;1.63;1.05;;;22.90;20.70;26.00;93591.00;;;;10477253;28;46384;-69
2021/01/08 09:10:14;;;;;;;0.80;0.80;;;23.00;20.70;26.00;93598.00;;;;10493878;28;47235;-69
2021/01/08 09:15:26;;;;;;;1.13;0.80;;;23.00;20.70;26.00;93588.00;;;;10477574;28;45542;-68
2021/01/08 09:20:28;;;;;;;1.10;1.00;;;23.00;20.60;26.00;93598.00;;;;10476061;28;47480;-69
2021/01/08 09:25:29;;;;;;;0.95;0.85;;;23.00;20.60;26.00;93593.00;;;;10476844;28;57573;-68
2021/01/08 09:30:30;;;;;;;1.20;0.95;;;23.00;21.20;26.00;93598.00;;;;10475904;28;75497;-68
2021/01/08 09:35:31;;;;;;;0.70;0.70;;;23.00;20.50;26.00;93598.00;;;;10474346;28;54854;-69
2021/01/08 09:40:35;;;;;;;1.10;1.00;;;23.00;20.50;26.00;93603.00;;;;10493090;28;47251;-69
2021/01/08 09:45:36;;;;;;;1.75;0.85;;;23.00;20.60;25.90;93591.00;;;;10477098;28;46538;-68
2021/01/08 09:50:37;;;;;;;1.00;0.82;;;23.00;20.50;25.90;93601.00;;;;10493910;28;48009;-68
2021/01/08 09:55:38;;;;;;;1.13;1.00;;;23.00;20.50;25.90;93609.00;;;;10476405;28;46544;-69
2021/01/08 10:00:39;;;;;;;0.93;0.82;;;23.00;20.50;26.00;93610.00;;;;10476086;28;57830;-68
2021/01/08 10:05:40;;;;;;;1.27;0.77;;;22.90;20.50;26.00;93618.00;;;;10475080;28;73210;-67
2021/01/08 10:10:41;;;;;;;1.02;0.80;;;23.00;20.50;26.00;93616.00;;;;10475111;28;56849;-68
2021/01/08 10:15:51;;;;;;;0.80;0.80;;;23.00;20.50;26.00;93611.00;;;;10474556;28;47185;-68
2021/01/08 10:21:02;;;;;;;2.05;1.00;;;23.00;20.50;26.00;93607.00;;;;10474500;28;47174;-68
2021/01/08 10:26:18;;;;;;;1.20;1.00;;;23.00;20.50;26.10;93590.00;;;;10475406;28;45372;-69
2021/01/08 10:31:21;;;;;;;1.42;0.80;;;23.00;20.60;26.00;93596.00;;;;10475042;28;47530;-69
2021/01/08 10:36:22;;;;;;;1.05;0.77;;;23.00;20.60;26.00;93597.00;;;;10452370;28;57759;-69
2021/01/08 10:41:23;;;;;;;1.10;0.90;;;23.00;20.60;26.00;93593.00;;;;10432081;28;74383;-69
2021/01/08 10:46:23;;;;;;;2.00;0.95;;;23.00;20.60;26.00;93585.00;;;;10433127;28;47096;-69
2021/01/08 10:51:28;;;;;;;1.10;0.80;;;23.00;20.60;26.00;93589.00;;;;10415649;28;46981;-69
2021/01/08 10:56:30;;;;;;;1.60;0.90;;;23.00;20.60;26.00;93574.00;;;;10433049;28;47272;-68
2021/01/08 11:01:40;;;;;;;1.50;0.90;;;23.00;20.50;26.00;93588.00;;;;10432916;28;45419;-68
2021/01/08 11:06:41;;;;;;;1.00;0.90;;;23.00;20.60;26.00;93578.00;;;;10416180;28;47292;-68
2021/01/08 11:11:42;;;;;;;1.15;0.93;;;23.00;20.60;26.00;93590.00;;;;10432545;28;54396;-67
2021/01/08 11:16:42;;;;;;;2.22;1.13;;;23.00;20.60;26.00;93569.00;;;;10431602;28;75183;-68
2021/01/08 11:21:43;;;;;;;1.40;0.80;;;23.00;20.60;26.00;93563.00;;;;10431402;28;74232;-67
2021/01/08 11:26:44;;;;;;;0.93;0.80;;;23.00;20.60;26.00;93561.00;;;;10432506;28;47380;-68
2021/01/08 11:31:45;;;;;;;1.02;0.80;;;23.00;20.60;26.00;93556.00;;;;10430902;28;70587;-69
2021/01/08 11:36:46;;;;;;;1.00;0.80;;;23.00;20.60;26.00;93548.00;;;;10415048;28;48108;-69
2021/01/08 11:41:46;;;;;;;1.00;0.70;;;23.00;20.60;26.00;93548.00;;;;10414689;28;47472;-69
2021/01/08 11:46:49;;;;;;;0.80;0.80;;;23.00;20.60;26.00;93555.00;;;;10437540;28;55691;-69
2021/01/08 11:51:49;;;;;;;0.80;0.80;;;23.00;20.60;26.00;93547.00;;;;10421017;28;47310;-69
2021/01/08 11:56:50;;;;;;;0.90;0.80;;;23.00;20.60;26.00;93545.00;;;;10438776;28;51913;-69
2021/01/08 12:01:51;;;;;;;0.80;0.73;;;23.00;20.50;26.00;93529.00;;;;10421360;28;46983;-70
2021/01/08 12:06:52;;;;;;;0.88;0.70;;;23.00;20.50;26.00;93548.00;;;;10438666;28;45376;-69
2021/01/08 12:12:01;;;;;;;0.90;0.85;;;23.00;20.60;26.00;93536.00;;;;10437936;28;74428;-69
2021/01/08 12:17:09;;;;;;;1.10;0.90;;;23.00;21.20;26.00;93544.00;;;;10421766;28;47340;-69
2021/01/08 12:22:10;;;;;;;1.45;0.90;;;23.00;20.60;26.00;93560.00;;;;10420794;28;47401;-70
2021/01/08 12:27:11;;;;;;;1.10;0.80;;;23.00;20.50;26.00;93557.00;;;;10421015;28;47036;-69
2021/01/08 12:32:12;;;;;;;1.17;1.08;;;23.00;20.50;26.00;93565.00;;;;10419942;28;56394;-69
2021/01/08 12:37:13;;;;;;;0.93;0.88;;;23.00;20.50;26.00;93565.00;;;;10420165;28;47157;-69
2021/01/08 12:42:14;;;;;;;1.02;0.93;;;23.00;20.50;26.00;93551.00;;;;10418667;28;75124;-69
2021/01/08 12:47:15;;;;;;;1.23;0.93;;;23.00;20.50;26.00;93549.00;;;;10436212;28;74538;-69
2021/01/08 12:52:15;;;;;;;1.10;1.00;;;23.00;20.40;26.00;93560.00;;;;10413908;28;74088;-69
2021/01/08 12:57:17;;;;;;;1.17;0.98;;;23.00;20.40;26.00;93556.00;;;;10433469;28;56556;-70
2021/01/08 13:02:18;;;;;;;1.00;0.90;;;23.00;20.50;26.00;93554.00;;;;10419425;28;47157;-69
2021/01/08 13:07:18;;;;;;;1.10;0.85;;;23.00;20.50;26.00;93550.00;;;;10419201;28;47120;-69
2021/01/08 13:12:20;;;;;;;0.93;0.82;;;23.00;20.40;26.00;93551.00;;;;10430991;28;74345;-71
2021/01/08 13:17:21;;;;;;;0.77;0.77;;;23.00;20.40;26.00;93534.00;;;;10414511;28;47927;-68
2021/01/08 13:22:25;;;;;;;0.88;0.80;;;23.00;20.40;26.00;93538.00;;;;10433447;28;72836;-68
2021/01/08 13:27:28;;;;;;;0.70;0.60;;;23.00;20.40;26.00;93529.00;;;;10418767;28;65169;-68
2021/01/08 13:32:28;;;;;;;1.00;0.77;;;23.00;20.40;26.00;93540.00;;;;10419672;28;47290;-68
2021/01/08 13:37:29;;;;;;;0.85;0.75;;;23.00;20.40;26.00;93548.00;;;;10434656;28;75281;-68
2021/01/08 13:42:30;;;;;;;0.60;0.60;;;23.00;20.30;26.00;93543.00;;;;10432939;28;75418;-69
2021/01/08 13:47:30;;;;;;;0.57;0.57;;;23.00;20.30;26.00;93562.00;;;;10433023;28;45568;-68
2021/01/08 13:52:39;;;;;;;1.23;0.63;;;23.00;20.30;26.00;93542.00;;;;10472980;22;45560;-73
2021/01/08 13:57:39;;;;;;;1.20;0.80;;;23.00;20.30;26.00;93543.00;;;;10433680;28;45446;-74
2021/01/08 14:02:40;;;;;;;1.00;0.77;;;23.00;20.30;26.00;93552.00;;;;10434086;28;74215;-73
2021/01/08 14:07:40;;;;;;;0.50;0.50;;;23.00;20.30;26.00;93561.00;;;;10432795;28;59055;-73
2021/01/08 14:12:41;;;;;;;0.80;0.65;;;23.00;20.30;26.00;93559.00;;;;10433473;28;64286;-73
2021/01/08 14:17:42;;;;;;;0.70;0.70;;;23.00;20.20;26.00;93567.00;;;;10433172;28;74694;-73
2021/01/08 14:22:44;;;;;;;0.95;0.70;;;23.00;20.20;26.00;93570.00;;;;10431893;28;74288;-73
2021/01/08 14:27:45;;;;;;;0.70;0.70;;;23.00;20.20;26.00;93583.00;;;;10449955;28;46762;-73
2021/01/08 14:32:48;;;;;;;10.93;1.23;;;23.00;20.10;26.00;93578.00;;;;10424377;28;55460;-77
2021/01/08 14:37:48;;;;;;;1.27;0.60;;;22.90;20.40;26.00;93579.00;;;;10432579;28;56437;-73
2021/01/08 14:42:49;;;;;;;0.50;0.47;;;22.90;21.00;26.00;93595.00;;;;10432061;28;75548;-73
2021/01/08 14:47:50;;;;;;;0.50;0.50;;;23.00;20.90;26.00;93599.00;;;;10415248;28;74291;-73
2021/01/08 14:52:50;;;;;;;1.95;0.50;;;23.00;20.80;26.00;93594.00;;;;10413838;28;75097;-73
2021/01/08 14:57:51;;;;;;;0.63;0.50;;;23.00;20.80;26.00;93602.00;;;;10409720;28;67801;-73
2021/01/08 15:02:52;;;;;;;0.60;0.45;;;23.00;20.80;26.00;93588.00;;;;10398835;28;50811;-74
2021/01/08 15:07:52;;;;;;;0.40;0.35;;;23.00;20.80;26.00;93601.00;;;;10423561;28;75629;-72
2021/01/08 15:12:54;;;;;;;0.45;0.40;;;23.00;20.70;26.00;93604.00;;;;10424175;28;53914;-73
2021/01/08 15:17:54;;;;;;;0.80;0.52;;;23.00;20.70;26.00;93605.00;;;;10408503;28;47252;-73
2021/01/08 15:22:56;;;;;;;0.80;0.60;;;23.00;20.80;26.00;93608.00;;;;10437947;28;47280;-73
2021/01/08 15:27:58;;;;;;;1.00;0.70;;;23.00;20.70;26.00;93609.00;;;;10439094;28;47132;-72
2021/01/08 15:33:02;;;;;;;0.88;0.70;;;23.00;20.80;26.00;93607.00;;;;10434157;28;75695;-73
2021/01/08 15:38:03;;;;;;;0.70;0.60;;;23.00;20.80;26.00;93623.00;;;;10399390;28;54318;-72
2021/01/08 15:43:04;;;;;;;1.33;0.70;;;23.00;20.80;26.00;93616.00;;;;10380604;28;47369;-72
2021/01/08 15:48:05;;;;;;;1.13;0.75;;;23.00;20.80;26.00;93615.00;;;;10380454;28;47227;-73
2021/01/08 15:53:06;;;;;;;1.02;0.77;;;23.00;20.80;26.00;93610.00;;;;10381282;28;55479;-73
2021/01/08 15:58:08;;;;;;;1.40;1.10;;;23.00;20.80;26.00;93605.00;;;;10455421;28;56074;-73
2021/01/08 16:03:09;;;;;;;1.10;0.90;;;23.00;20.70;26.00;93617.00;;;;10399479;28;46386;-73
2021/01/08 16:08:10;;;;;;;1.10;0.77;;;23.00;20.70;26.00;93625.00;;;;10425859;28;47021;-73
2021/01/08 16:13:16;;;;;;;1.10;0.93;;;23.00;20.80;26.00;93627.00;;;;10428564;28;75467;-73
2021/01/08 16:18:18;;;;;;;1.35;0.90;;;23.00;20.80;26.00;93633.00;;;;10430376;28;46613;-73
2021/01/08 16:23:19;;;;;;;1.00;0.80;;;23.00;20.70;26.00;93633.00;;;;10430391;28;45496;-73
2021/01/08 16:28:20;;;;;;;1.10;0.90;;;23.00;20.70;26.00;93633.00;;;;10412213;28;74981;-72
2021/01/08 16:33:21;;;;;;;1.25;0.80;;;23.00;20.70;26.00;93633.00;;;;10426910;28;74242;-73
2021/01/08 16:38:22;;;;;;;0.95;0.70;;;23.00;20.80;26.00;93655.00;;;;10417842;28;75122;-73
2021/01/08 16:43:23;;;;;;;1.00;0.90;;;23.00;20.80;25.90;93641.00;;;;10379191;28;47304;-73
2021/01/08 16:48:24;;;;;;;0.98;0.70;;;23.00;20.70;26.00;93654.00;;;;10395040;28;75351;-73
2021/01/08 16:53:24;;;;;;;1.23;0.90;;;23.00;20.60;26.00;93663.00;;;;10394319;28;75696;-73
2021/01/08 16:58:25;;;;;;;1.08;0.80;;;23.00;20.70;26.00;93664.00;;;;10378044;28;75161;-73
2021/01/08 17:03:26;;;;;;;0.80;0.77;;;23.00;20.70;26.00;93659.00;;;;10377493;28;75025;-73
2021/01/08 17:08:26;;;;;;;0.98;0.70;;;23.00;20.70;26.00;93667.00;;;;10377354;28;74565;-73
2021/01/08 17:13:27;;;;;;;1.27;0.90;;;22.90;20.70;26.00;93665.00;;;;10393662;28;46276;-73
2021/01/08 17:18:29;;;;;;;1.15;0.85;;;22.90;20.70;26.00;93664.00;;;;10395843;28;45340;-73
2021/01/08 17:23:30;;;;;;;0.93;0.85;;;23.00;20.70;25.90;93670.00;;;;10376693;28;75529;-73
2021/01/08 17:28:31;;;;;;;1.30;0.77;;;23.00;20.70;25.90;93670.00;;;;10377897;28;47043;-73
2021/01/08 17:33:31;;;;;;;0.98;0.82;;;23.00;20.70;25.90;93676.00;;;;10376591;28;75434;-73
2021/01/08 17:38:32;;;;;;;1.38;0.98;;;23.00;20.70;26.00;93670.00;;;;10393530;28;75594;-73
2021/01/08 17:43:33;;;;;;;1.52;1.17;;;22.90;20.70;26.00;93677.00;;;;10392215;28;74547;-73
2021/01/08 17:48:33;;;;;;;1.13;1.02;;;22.90;20.70;26.00;93682.00;;;;10393246;28;75576;-73
2021/01/08 17:53:39;;;;;;;1.67;1.00;;;23.00;20.70;26.00;93667.00;;;;10378879;28;47238;-73
2021/01/08 17:58:40;;;;;;;1.70;1.10;;;23.00;20.70;26.00;93674.00;;;;10394077;28;45388;-73
2021/01/08 18:03:42;;;;;;;1.10;1.00;;;22.90;20.70;26.00;93671.00;;;;10375859;28;74916;-73
2021/01/08 18:08:44;;;;;;;1.17;0.95;;;23.00;20.70;26.00;93673.00;;;;10376478;28;48506;-73
2021/01/08 18:13:45;;;;;;;1.50;1.00;;;23.00;20.70;25.90;93676.00;;;;10375588;28;47425;-74
2021/01/08 18:18:46;;;;;;;1.08;0.95;;;23.00;20.80;26.00;93682.00;;;;10392387;28;47103;-73
2021/01/08 18:23:47;;;;;;;1.17;1.02;;;23.00;20.80;26.00;93683.00;;;;10375694;28;47307;-73
2021/01/08 18:28:51;;;;;;;1.42;1.10;;;23.00;20.70;26.00;93683.00;;;;10375813;28;74295;-73
2021/01/08 18:33:51;;;;;;;1.33;1.10;;;23.00;20.80;26.00;93686.00;;;;10375033;28;61303;-73
2021/01/08 18:38:52;;;;;;;1.60;1.08;;;22.90;20.70;26.00;93676.00;;;;10392538;28;53008;-73
2021/01/08 18:43:53;;;;;;;1.20;0.90;;;23.00;20.70;26.00;93695.00;;;;10375218;28;47161;-72
2021/01/08 18:48:53;;;;;;;1.38;1.00;;;23.00;20.80;26.00;93685.00;;;;10374626;28;75061;-73
2021/01/08 18:53:54;;;;;;;1.30;1.00;;;23.00;20.80;26.00;93697.00;;;;10389863;28;70541;-73
2021/01/08 18:58:55;;;;;;;1.10;0.90;;;23.00;20.70;26.00;93704.00;;;;10374761;28;60016;-73
2021/01/08 19:03:57;;;;;;;1.42;1.00;;;23.00;20.70;26.00;93697.00;;;;10390316;28;74308;-73
2021/01/08 19:08:58;;;;;;;1.70;1.10;;;23.00;20.70;26.00;93696.00;;;;10391706;28;47183;-73
2021/01/08 19:14:00;;;;;;;1.38;1.10;;;23.00;21.20;26.00;93691.00;;;;10391595;28;46882;-73
2021/01/08 19:19:01;;;;;;;1.80;1.20;;;23.00;20.60;26.00;93701.00;;;;10374933;28;47110;-73
2021/01/08 19:24:02;;;;;;;1.30;1.10;;;23.00;20.50;26.00;93704.00;;;;10374499;28;55574;-74
2021/01/08 19:29:04;;;;;;;1.42;1.00;;;23.00;20.60;26.00;93717.00;;;;10390250;28;52271;-73
2021/01/08 19:34:07;;;;;;;1.27;1.10;;;23.00;20.50;26.00;93716.00;;;;10374450;28;47088;-72
2021/01/08 19:39:07;;;;;;;2.13;1.23;;;22.90;20.50;26.00;93717.00;;;;10374577;28;47248;-73
2021/01/08 19:44:09;;;;;;;1.50;1.30;;;23.00;20.40;26.00;93724.00;;;;10389770;28;75470;-73
2021/01/08 19:49:11;;;;;;;1.83;1.33;;;23.00;20.40;26.00;93732.00;;;;10373902;28;47176;-73
2021/01/08 19:54:12;;;;;;;1.25;1.15;;;22.90;20.40;26.00;93738.00;;;;10373761;28;47085;-73
2021/01/08 19:59:13;;;;;;;1.88;1.35;;;22.90;20.40;26.00;93740.00;;;;10391858;28;65353;-74
2021/01/08 20:04:14;;;;;;;2.30;1.58;;;23.00;20.30;26.00;93743.00;;;;10392136;28;73361;-74
2021/01/08 20:09:14;;;;;;;2.13;1.50;;;22.90;20.30;26.00;93738.00;;;;10380906;28;74410;-74
2021/01/08 20:14:15;;;;;;;1.73;1.50;;;23.00;20.30;26.00;93731.00;;;;10398179;28;74221;-73
2021/01/08 20:19:17;;;;;;;2.22;1.60;;;23.00;20.20;26.00;93744.00;;;;10380979;28;75485;-74
2021/01/08 20:24:17;;;;;;;2.03;1.60;;;23.00;20.20;26.00;93742.00;;;;10397357;28;45390;-74
2021/01/08 20:29:18;;;;;;;2.35;1.60;;;23.00;20.20;26.00;93750.00;;;;10396284;28;48369;-74
2021/01/08 20:34:20;;;;;;;2.75;1.67;;;22.90;20.20;25.90;93749.00;;;;10381271;28;47284;-74
2021/01/08 20:39:20;;;;;;;1.77;1.42;;;22.90;20.20;26.00;93744.00;;;;10381569;28;47665;-74
2021/01/08 20:44:21;;;;;;;1.65;1.38;;;23.00;20.20;25.90;93750.00;;;;10398176;28;45582;-74
2021/01/08 20:49:22;;;;;;;1.38;1.17;;;23.00;20.20;25.90;93758.00;;;;10396133;28;75386;-73
2021/01/08 20:54:22;;;;;;;1.98;1.40;;;22.90;20.20;25.90;93765.00;;;;10379044;28;77556;-74
2021/01/08 20:59:23;;;;;;;1.90;1.30;;;23.00;20.20;25.90;93760.00;;;;10397676;28;73126;-74
2021/01/08 21:04:24;;;;;;;1.63;1.27;;;22.90;20.20;26.00;93760.00;;;;10396137;28;73523;-73
2021/01/08 21:09:25;;;;;;;1.88;1.30;;;22.90;20.30;25.90;93768.00;;;;10395626;28;75830;-73
2021/01/08 21:14:26;;;;;;;1.45;1.13;;;22.90;20.30;25.90;93758.00;;;;10380378;28;47250;-74
2021/01/08 21:19:26;;;;;;;1.60;1.20;;;22.90;20.30;25.90;93772.00;;;;10378240;28;75738;-74
2021/01/08 21:24:28;;;;;;;1.50;1.10;;;22.90;20.20;25.90;93768.00;;;;10378829;28;75508;-73
2021/01/08 21:29:28;;;;;;;1.30;1.00;;;22.90;20.20;26.00;93752.00;;;;10379990;28;47238;-74
2021/01/08 21:34:29;;;;;;;1.70;0.93;;;23.00;20.20;26.00;93771.00;;;;10379505;28;48143;-73
2021/01/08 21:39:30;;;;;;;1.42;1.00;;;23.00;20.20;26.00;93781.00;;;;10378283;28;74415;-74
2021/01/08 21:44:30;;;;;;;1.30;0.93;;;23.00;20.30;26.00;93784.00;;;;10395740;28;45672;-73
2021/01/08 21:49:32;;;;;;;1.38;1.00;;;23.00;20.20;26.00;93776.00;;;;10378660;28;49955;-74
2021/01/08 21:54:33;;;;;;;1.52;0.98;;;22.90;20.20;26.00;93764.00;;;;10377864;28;46676;-74
2021/01/08 21:59:33;;;;;;;1.50;1.02;;;22.90;20.20;26.00;93762.00;;;;10393895;28;71971;-74
2021/01/08 22:04:34;;;;;;;1.25;0.88;;;22.90;20.30;26.00;93765.00;;;;10394472;28;47175;-74
2021/01/08 22:09:36;;;;;;;1.55;1.20;;;22.90;20.20;25.90;93768.00;;;;10393521;28;75809;-73